Time;durP1;ratioP1;P1;durP2;ratioP2;P2;SDS_P1;SDS_P2;PMS_P1;PMS_P2;Temp;Humidity;BMP_temperature;BMP_pressure;BME280_temperature;BME280_humidity;BME280_pressure;Samples;Min_cycle;Max_cycle;Signal;HPM_P1;HPM_P2
2023/01/17 00:02:06;;;;;;;0.10;0.10;;;3.70;99.90;12.80;163505.00;;;;4978257;28;20300;-77
2023/01/17 00:10:11;;;;;;;0.10;0.10;;;3.70;99.90;12.80;163505.00;;;;4994460;28;20190;-76
2023/01/17 00:12:39;;;;;;;0.10;0.10;;;3.70;99.90;12.80;163505.00;;;;4988564;28;20784;-77
2023/01/17 00:15:10;;;;;;;0.10;0.10;;;3.70;99.90;12.80;163505.00;;;;4993841;28;20217;-77
2023/01/17 00:17:38;;;;;;;0.10;0.10;;;3.70;99.90;12.80;163505.00;;;;4996529;28;20199;-77
2023/01/17 01:35:52;;;;;;;0.10;0.10;;;3.50;99.90;12.80;163505.00;;;;4975603;28;20682;-77
2023/01/17 01:38:23;;;;;;;0.10;0.10;;;3.50;99.90;12.80;163505.00;;;;4974239;28;20704;-76
2023/01/17 01:40:54;;;;;;;0.10;0.10;;;3.40;99.90;12.80;163505.00;;;;4968869;28;20190;-75
2023/01/17 01:43:44;;;;;;;0.10;0.10;;;3.40;99.90;12.80;163505.00;;;;4960341;28;20221;-77
2023/01/17 01:46:17;;;;;;;0.10;0.10;;;3.40;99.90;12.80;163505.00;;;;4968980;28;20201;-76
2023/01/17 01:48:52;;;;;;;0.10;0.10;;;3.40;99.90;12.80;163505.00;;;;4976186;28;20209;-76
2023/01/17 01:51:27;;;;;;;0.10;0.10;;;3.40;99.90;12.80;163505.00;;;;4977384;28;20208;-77
2023/01/17 01:54:07;;;;;;;0.10;0.10;;;3.40;99.90;12.80;163505.00;;;;4960562;28;20236;-76
2023/01/17 01:56:36;;;;;;;0.10;0.10;;;3.30;99.90;12.80;163505.00;;;;4955935;28;20194;-76
2023/01/17 01:59:09;;;;;;;0.10;0.10;;;3.30;99.90;12.80;163505.00;;;;4940705;29;20205;-76
2023/01/17 02:01:37;;;;;;;0.10;0.10;;;3.20;99.90;12.80;163505.00;;;;4951018;28;20201;-74
2023/01/17 02:04:08;;;;;;;0.10;0.10;;;3.20;99.90;12.80;163505.00;;;;4983096;28;20276;-74
2023/01/17 02:06:41;;;;;;;0.10;0.10;;;3.20;99.90;12.80;163505.00;;;;4987888;28;20299;-75
2023/01/17 02:09:12;;;;;;;0.10;0.10;;;3.20;99.90;12.80;163505.00;;;;4971284;28;20280;-75
2023/01/17 02:11:41;;;;;;;0.10;0.10;;;3.20;99.90;12.80;163505.00;;;;4951250;28;20259;-75
2023/01/17 02:14:14;;;;;;;0.10;0.10;;;3.30;99.90;12.80;163505.00;;;;4973932;28;20721;-75
2023/01/17 02:17:01;;;;;;;0.10;0.10;;;3.30;99.90;12.80;163505.00;;;;4969130;28;20197;-75
2023/01/17 02:20:14;;;;;;;0.10;0.10;;;3.30;99.90;12.80;163505.00;;;;4956708;28;20202;-75
2023/01/17 02:23:39;;;;;;;0.10;0.10;;;3.30;99.90;12.80;163505.00;;;;4969685;28;20785;-75
2023/01/17 02:26:36;;;;;;;0.10;0.10;;;3.30;99.90;12.80;163505.00;;;;4981069;28;20255;-76
2023/01/17 02:29:54;;;;;;;0.10;0.10;;;3.30;99.90;12.80;163505.00;;;;4954428;28;20229;-74
2023/01/17 02:32:37;;;;;;;0.10;0.10;;;3.40;99.90;12.80;163505.00;;;;4962037;28;20303;-75
2023/01/17 02:35:16;;;;;;;0.10;0.10;;;3.40;99.90;12.80;163505.00;;;;4973261;28;20197;-75
2023/01/17 02:37:57;;;;;;;0.10;0.10;;;3.50;99.90;12.80;163505.00;;;;4977692;28;20220;-75
2023/01/17 02:40:30;;;;;;;0.10;0.10;;;3.50;99.90;12.80;163505.00;;;;4975341;28;20228;-75
2023/01/17 02:43:06;;;;;;;0.10;0.10;;;3.60;99.90;12.80;163505.00;;;;4984315;28;20639;-75
2023/01/17 02:45:34;;;;;;;0.10;0.10;;;3.70;99.90;12.80;163505.00;;;;4986022;28;20227;-75
2023/01/17 02:48:06;;;;;;;0.10;0.10;;;3.70;99.90;12.80;163505.00;;;;4993639;28;20197;-74
2023/01/17 02:50:56;;;;;;;0.10;0.10;;;3.80;99.90;12.80;163505.00;;;;4997403;28;20638;-76
2023/01/17 02:53:41;;;;;;;0.10;0.10;;;3.70;99.90;12.80;163505.00;;;;4984346;28;20224;-76
2023/01/17 02:56:26;;;;;;;0.10;0.10;;;3.80;99.90;12.80;163505.00;;;;4985484;28;20220;-74
2023/01/17 02:59:12;;;;;;;0.10;0.10;;;3.80;99.90;12.80;163505.00;;;;4967447;28;20201;-75
2023/01/17 03:02:03;;;;;;;0.10;0.10;;;3.80;99.90;12.80;163505.00;;;;4997058;28;20224;-74
2023/01/17 03:04:41;;;;;;;0.10;0.10;;;3.80;99.90;12.80;163505.00;;;;4959985;29;20224;-74
2023/01/17 03:07:16;;;;;;;0.10;0.10;;;3.80;99.90;12.80;163505.00;;;;4965498;28;20200;-74
2023/01/17 03:09:49;;;;;;;0.10;0.10;;;3.70;99.90;12.80;163505.00;;;;4972477;28;20219;-73
2023/01/17 03:12:17;;;;;;;0.10;0.10;;;3.70;99.90;12.80;163505.00;;;;4972662;28;20670;-75
2023/01/17 03:14:45;;;;;;;0.10;0.10;;;3.70;99.90;12.80;163505.00;;;;4973744;28;20268;-75
2023/01/17 03:17:13;;;;;;;0.10;0.10;;;3.70;99.90;12.80;163505.00;;;;4959109;28;20271;-73
2023/01/17 03:19:43;;;;;;;0.10;0.10;;;3.70;99.90;12.80;163505.00;;;;4963147;28;20200;-74
2023/01/17 03:22:11;;;;;;;0.10;0.10;;;3.70;99.90;12.80;163505.00;;;;4986066;28;20201;-73
2023/01/17 03:24:39;;;;;;;0.10;0.10;;;3.70;99.90;12.80;163505.00;;;;4982556;28;20280;-74
2023/01/17 03:27:07;;;;;;;0.10;0.10;;;3.70;99.90;12.80;163505.00;;;;4969766;28;20922;-73
2023/01/17 03:29:35;;;;;;;0.10;0.10;;;3.70;99.90;12.80;163505.00;;;;4974511;28;20634;-75
2023/01/17 03:32:03;;;;;;;0.10;0.10;;;3.70;99.90;12.80;163505.00;;;;4969433;28;20216;-75
2023/01/17 03:34:31;;;;;;;0.08;0.08;;;3.70;99.90;12.80;163505.00;;;;4991882;28;20222;-74
2023/01/17 03:37:00;;;;;;;0.10;0.10;;;3.70;99.90;12.80;163505.00;;;;4978540;28;20197;-75
2023/01/17 03:39:28;;;;;;;0.00;0.00;;;3.70;99.90;12.80;163505.00;;;;4988629;28;20213;-75
2023/01/17 03:41:56;;;;;;;0.10;0.10;;;3.70;99.90;12.80;163505.00;;;;4975435;28;20283;-74
2023/01/17 03:44:24;;;;;;;0.10;0.10;;;3.70;99.90;12.80;163505.00;;;;4970988;28;20590;-74
2023/01/17 03:46:52;;;;;;;0.10;0.10;;;3.70;99.90;12.80;163505.00;;;;4965578;28;20611;-75
2023/01/17 03:49:20;;;;;;;0.10;0.10;;;3.70;99.90;12.80;163505.00;;;;4975608;28;20222;-75
2023/01/17 03:51:48;;;;;;;0.10;0.10;;;3.70;99.90;12.80;163505.00;;;;4959641;28;20193;-75
2023/01/17 03:54:17;;;;;;;0.10;0.10;;;3.70;99.90;12.80;163505.00;;;;4956422;29;20217;-76
2023/01/17 03:56:45;;;;;;;0.10;0.10;;;3.70;99.90;12.80;163505.00;;;;4949573;28;20555;-75
2023/01/17 03:59:13;;;;;;;0.10;0.10;;;3.70;99.90;12.80;163505.00;;;;4971641;28;20232;-76
2023/01/17 04:01:41;;;;;;;0.10;0.10;;;3.70;99.90;12.80;163505.00;;;;4979896;28;20260;-76
2023/01/17 04:04:09;;;;;;;0.10;0.10;;;3.70;99.90;12.80;163505.00;;;;4975234;28;20587;-76
2023/01/17 04:06:37;;;;;;;0.10;0.10;;;3.60;99.90;12.80;163505.00;;;;4975569;28;20202;-76
2023/01/17 04:09:05;;;;;;;0.10;0.10;;;3.60;99.90;12.80;163505.00;;;;4957680;28;20636;-74
2023/01/17 04:11:35;;;;;;;0.10;0.10;;;3.60;99.90;12.80;163505.00;;;;4962325;28;20197;-74
2023/01/17 04:14:02;;;;;;;0.10;0.10;;;3.50;99.90;12.80;163505.00;;;;4955937;28;20221;-75
2023/01/17 04:16:32;;;;;;;0.10;0.10;;;3.50;99.90;12.80;163505.00;;;;4966281;28;20259;-75
2023/01/17 04:19:00;;;;;;;0.10;0.10;;;3.50;99.90;12.80;163505.00;;;;4978754;28;20202;-75
2023/01/17 04:21:28;;;;;;;0.10;0.10;;;3.40;99.90;12.80;163505.00;;;;4996078;28;20219;-76
2023/01/17 04:23:56;;;;;;;0.10;0.10;;;3.40;99.90;12.80;163505.00;;;;5001261;28;20217;-75
2023/01/17 04:26:24;;;;;;;0.10;0.10;;;3.30;99.90;12.80;163505.00;;;;4978069;28;20204;-75
2023/01/17 04:28:53;;;;;;;0.13;0.13;;;3.30;99.90;12.80;163505.00;;;;4938604;29;20659;-76
2023/01/17 04:31:21;;;;;;;0.10;0.10;;;3.20;99.90;12.80;163505.00;;;;4958166;28;20229;-75
2023/01/17 04:33:49;;;;;;;0.10;0.10;;;3.20;99.90;12.80;163505.00;;;;4956014;28;20296;-75
2023/01/17 04:36:17;;;;;;;0.10;0.10;;;3.10;99.90;12.80;163505.00;;;;4961871;28;20725;-76
2023/01/17 04:38:45;;;;;;;0.10;0.10;;;3.10;99.90;12.80;163505.00;;;;4979553;28;20201;-75
2023/01/17 04:41:13;;;;;;;0.10;0.10;;;3.10;99.90;12.80;163505.00;;;;4974520;28;20212;-75
2023/01/17 04:43:41;;;;;;;0.10;0.10;;;3.10;99.90;12.80;163505.00;;;;4974756;28;20223;-76
2023/01/17 04:46:11;;;;;;;0.10;0.10;;;3.10;99.90;12.80;163505.00;;;;4971248;28;20209;-74
2023/01/17 04:48:39;;;;;;;0.10;0.10;;;3.00;99.90;12.80;163505.00;;;;4986346;28;20662;-75
2023/01/17 04:51:07;;;;;;;0.10;0.10;;;3.00;99.90;12.80;163505.00;;;;4976733;28;20698;-75
2023/01/17 04:53:35;;;;;;;0.10;0.10;;;3.00;99.90;12.80;163505.00;;;;5007287;23;20604;-74
2023/01/17 04:56:03;;;;;;;0.10;0.10;;;3.00;99.90;12.80;163505.00;;;;5003134;28;20201;-74
2023/01/17 04:58:32;;;;;;;0.10;0.10;;;3.00;99.90;12.80;163505.00;;;;4989433;28;20212;-74
2023/01/17 05:01:04;;;;;;;0.10;0.10;;;2.90;99.90;12.80;163505.00;;;;4994517;28;20192;-74
2023/01/17 05:03:34;;;;;;;0.10;0.10;;;2.90;99.90;12.80;163505.00;;;;4994710;28;20216;-74
2023/01/17 05:06:03;;;;;;;0.10;0.10;;;2.90;99.90;12.80;163505.00;;;;4989221;28;20673;-75
2023/01/17 05:08:31;;;;;;;0.10;0.10;;;2.90;99.90;12.80;163505.00;;;;4974089;28;20223;-74
2023/01/17 05:10:59;;;;;;;0.10;0.10;;;2.90;99.90;12.80;163505.00;;;;4973810;28;20246;-74
2023/01/17 05:13:26;;;;;;;0.10;0.10;;;2.90;99.90;12.80;163505.00;;;;4972920;28;20279;-73
2023/01/17 05:15:57;;;;;;;0.10;0.10;;;2.90;99.90;12.80;163505.00;;;;4975867;28;20286;-74
2023/01/17 05:18:25;;;;;;;0.10;0.10;;;2.90;99.90;12.80;163505.00;;;;4968286;28;20295;-74
2023/01/17 05:21:00;;;;;;;0.10;0.10;;;2.80;99.90;12.80;163505.00;;;;4985628;28;20200;-74
2023/01/17 05:23:28;;;;;;;0.10;0.10;;;2.90;99.90;12.80;163505.00;;;;4993279;28;20715;-73
2023/01/17 05:25:55;;;;;;;0.10;0.10;;;2.80;99.90;12.80;163505.00;;;;4989663;28;20296;-73
2023/01/17 05:28:24;;;;;;;0.10;0.10;;;2.80;99.90;12.80;163505.00;;;;4971699;28;20264;-72
2023/01/17 05:30:56;;;;;;;0.10;0.10;;;2.80;99.90;12.80;163505.00;;;;4974424;28;20216;-73
2023/01/17 05:33:24;;;;;;;0.10;0.10;;;2.80;99.90;12.80;163505.00;;;;4974863;28;20723;-73
2023/01/17 05:35:53;;;;;;;0.10;0.10;;;2.90;99.90;12.80;163505.00;;;;4974394;28;20576;-73
2023/01/17 05:38:22;;;;;;;0.10;0.10;;;2.90;99.90;12.80;163505.00;;;;4978520;28;20335;-73
2023/01/17 05:40:50;;;;;;;0.10;0.10;;;2.90;99.90;12.80;163505.00;;;;4978264;28;20255;-72
2023/01/17 05:43:18;;;;;;;0.10;0.10;;;2.90;99.90;12.80;163505.00;;;;4956188;28;20228;-72
2023/01/17 05:45:49;;;;;;;0.10;0.10;;;2.90;99.90;12.80;163505.00;;;;4989391;28;20232;-73
2023/01/17 05:48:17;;;;;;;0.10;0.10;;;2.90;99.90;12.80;163505.00;;;;4972973;28;20652;-73
2023/01/17 05:50:45;;;;;;;0.10;0.10;;;3.00;99.90;12.80;163505.00;;;;4977885;28;20212;-73
2023/01/17 05:53:16;;;;;;;0.10;0.10;;;3.00;99.90;12.80;163505.00;;;;4978542;28;20236;-73
2023/01/17 05:55:45;;;;;;;0.10;0.10;;;3.00;99.90;12.80;163505.00;;;;4973942;28;20220;-73
2023/01/17 05:58:17;;;;;;;0.10;0.10;;;3.00;99.90;12.80;163505.00;;;;4978552;28;20288;-73
2023/01/17 06:00:46;;;;;;;0.10;0.10;;;3.00;99.90;12.80;163505.00;;;;4973708;28;20205;-73
2023/01/17 06:03:15;;;;;;;0.10;0.10;;;3.00;99.90;12.80;163505.00;;;;4979575;28;20216;-73
2023/01/17 06:05:43;;;;;;;0.10;0.10;;;3.10;99.90;12.80;163505.00;;;;4977774;28;20670;-72
2023/01/17 06:08:11;;;;;;;0.10;0.10;;;3.10;99.90;12.80;163505.00;;;;4963097;28;20272;-73
2023/01/17 06:10:41;;;;;;;0.10;0.10;;;3.10;99.90;12.80;163505.00;;;;4973434;28;20272;-73
2023/01/17 06:13:13;;;;;;;0.08;0.08;;;3.10;99.90;12.80;163505.00;;;;4974050;28;20316;-73
2023/01/17 06:15:41;;;;;;;0.10;0.10;;;3.10;99.90;12.80;163505.00;;;;4972827;28;20197;-73
2023/01/17 06:18:13;;;;;;;0.10;0.10;;;3.10;99.90;12.80;163505.00;;;;4971622;28;20196;-73
2023/01/17 06:20:42;;;;;;;0.10;0.10;;;3.10;99.90;12.80;163505.00;;;;4973227;28;20197;-72
2023/01/17 06:23:13;;;;;;;0.10;0.10;;;3.10;99.90;12.80;163505.00;;;;4972799;28;20220;-72
2023/01/17 06:25:46;;;;;;;0.10;0.10;;;3.10;99.90;12.80;163505.00;;;;4973001;28;20194;-72
2023/01/17 06:28:17;;;;;;;0.10;0.10;;;3.10;99.90;12.80;163505.00;;;;4976301;28;20197;-73
2023/01/17 06:30:46;;;;;;;0.10;0.10;;;3.10;99.90;12.80;163505.00;;;;4972877;28;20213;-74
2023/01/17 06:33:15;;;;;;;0.10;0.10;;;3.10;99.90;12.80;163505.00;;;;4973551;28;20619;-73
2023/01/17 06:35:47;;;;;;;0.10;0.10;;;3.10;99.90;12.80;163505.00;;;;4972887;28;20276;-74
2023/01/17 06:38:16;;;;;;;0.10;0.10;;;3.10;99.90;12.80;163505.00;;;;4972513;28;20251;-73
2023/01/17 06:40:45;;;;;;;0.10;0.10;;;3.00;99.90;12.80;163505.00;;;;4954719;28;20197;-73
2023/01/17 06:43:13;;;;;;;0.10;0.10;;;3.10;99.90;12.80;163505.00;;;;4971820;28;20214;-73
2023/01/17 06:45:41;;;;;;;0.10;0.10;;;3.10;99.90;12.80;163505.00;;;;4972554;28;20252;-73
2023/01/17 06:48:09;;;;;;;0.10;0.10;;;3.10;99.90;12.80;163505.00;;;;4972478;28;20740;-73
2023/01/17 06:50:37;;;;;;;0.10;0.10;;;3.00;99.90;12.80;163505.00;;;;4974288;28;20185;-73
2023/01/17 06:53:07;;;;;;;0.10;0.10;;;3.00;99.90;12.80;163505.00;;;;4974282;28;20610;-73
2023/01/17 06:55:38;;;;;;;0.10;0.10;;;3.00;99.90;12.80;163505.00;;;;4955428;28;20630;-73
2023/01/17 06:58:09;;;;;;;0.10;0.10;;;3.00;99.90;12.80;163505.00;;;;4972559;28;20579;-73
2023/01/17 07:00:37;;;;;;;0.10;0.10;;;3.00;99.90;12.80;163505.00;;;;4971515;28;20201;-73
2023/01/17 07:03:17;;;;;;;0.10;0.10;;;3.00;99.90;12.80;163505.00;;;;4955623;28;20672;-73
2023/01/17 07:05:45;;;;;;;0.10;0.10;;;3.00;99.90;12.80;163505.00;;;;4972610;28;20239;-73
2023/01/17 07:08:15;;;;;;;0.10;0.10;;;3.00;99.90;12.80;163505.00;;;;4972003;28;20616;-73
2023/01/17 07:10:44;;;;;;;0.10;0.10;;;3.00;99.90;12.80;163505.00;;;;4971541;28;20197;-73
2023/01/17 07:13:13;;;;;;;0.10;0.10;;;2.90;99.90;12.80;163505.00;;;;4975875;28;20223;-73
2023/01/17 07:15:41;;;;;;;0.10;0.10;;;3.00;99.90;12.80;163505.00;;;;4980050;28;20622;-73
2023/01/17 07:18:09;;;;;;;0.10;0.10;;;2.90;99.90;12.80;163505.00;;;;4988661;28;20338;-73
2023/01/17 07:20:37;;;;;;;0.10;0.10;;;2.90;99.90;12.80;163505.00;;;;4976188;28;20204;-73
2023/01/17 07:23:06;;;;;;;0.10;0.10;;;2.90;99.90;12.80;163505.00;;;;4988382;28;20231;-73
2023/01/17 07:25:33;;;;;;;0.10;0.10;;;2.90;99.90;12.80;163505.00;;;;4986863;28;20259;-73
2023/01/17 07:28:01;;;;;;;0.10;0.10;;;2.90;99.90;12.80;163505.00;;;;4975427;28;20193;-72
2023/01/17 07:30:31;;;;;;;0.10;0.10;;;2.80;99.90;12.80;163505.00;;;;4975748;28;20202;-72
2023/01/17 07:33:00;;;;;;;0.10;0.10;;;2.90;99.90;12.80;163505.00;;;;4975566;28;20229;-73
2023/01/17 07:35:28;;;;;;;0.10;0.10;;;2.80;99.90;12.80;163505.00;;;;4976040;28;20193;-72
2023/01/17 07:37:56;;;;;;;0.10;0.10;;;2.80;99.90;12.80;163505.00;;;;4975845;28;20221;-72
2023/01/17 07:40:24;;;;;;;0.10;0.10;;;2.90;99.90;12.80;163505.00;;;;4975646;28;20221;-72
2023/01/17 07:42:52;;;;;;;0.10;0.10;;;2.90;99.90;12.80;163505.00;;;;4977523;28;20197;-73
2023/01/17 07:45:20;;;;;;;0.10;0.10;;;2.90;99.90;12.80;163505.00;;;;4983635;28;20213;-73
2023/01/17 07:47:50;;;;;;;0.10;0.10;;;2.90;99.90;12.80;163505.00;;;;4977335;28;20205;-73
2023/01/17 07:50:18;;;;;;;0.10;0.10;;;2.90;99.90;12.80;163505.00;;;;5003925;28;20358;-73
2023/01/17 07:52:49;;;;;;;0.10;0.10;;;2.90;99.90;12.80;163505.00;;;;4995089;28;20225;-73
2023/01/17 07:55:18;;;;;;;0.10;0.10;;;2.90;99.90;12.80;163505.00;;;;4976865;28;20201;-73
2023/01/17 07:57:49;;;;;;;0.10;0.10;;;2.80;99.90;12.80;163505.00;;;;4975786;28;20193;-73
2023/01/17 08:00:19;;;;;;;0.10;0.10;;;2.80;99.90;12.80;163505.00;;;;4990681;28;20287;-73
2023/01/17 08:02:47;;;;;;;0.10;0.10;;;2.70;99.90;12.80;163505.00;;;;4975610;28;20185;-73
2023/01/17 08:05:16;;;;;;;0.10;0.10;;;2.70;99.90;12.80;163505.00;;;;4975890;28;20226;-73
2023/01/17 08:07:44;;;;;;;0.10;0.10;;;2.70;99.90;12.80;163505.00;;;;4975466;28;20228;-73
2023/01/17 08:10:16;;;;;;;0.10;0.10;;;2.60;99.90;12.80;163505.00;;;;4975847;28;20614;-72
2023/01/17 08:12:46;;;;;;;0.10;0.10;;;2.60;99.90;12.80;163505.00;;;;4991930;28;20360;-73
2023/01/17 08:15:15;;;;;;;0.10;0.10;;;2.60;99.90;12.80;163505.00;;;;4975612;28;20193;-73
2023/01/17 08:17:47;;;;;;;0.10;0.10;;;2.60;99.90;12.80;163505.00;;;;4958935;28;20204;-72
2023/01/17 08:20:17;;;;;;;0.10;0.10;;;2.60;99.90;12.80;163505.00;;;;4976195;28;20197;-72
2023/01/17 08:22:45;;;;;;;0.10;0.10;;;2.60;99.90;12.80;163505.00;;;;4975523;28;20575;-72
2023/01/17 08:25:13;;;;;;;0.10;0.10;;;2.60;99.90;12.80;163505.00;;;;4975593;28;20247;-73
2023/01/17 08:27:41;;;;;;;0.10;0.10;;;2.70;99.90;12.80;163505.00;;;;4975352;28;20251;-73
2023/01/17 08:30:11;;;;;;;0.10;0.10;;;2.70;99.90;12.80;163505.00;;;;4976742;28;20693;-73
2023/01/17 08:32:39;;;;;;;0.10;0.10;;;2.70;99.90;12.80;163505.00;;;;4974298;28;20220;-72
2023/01/17 08:35:08;;;;;;;0.10;0.10;;;2.70;99.90;12.80;163505.00;;;;4978584;28;20200;-72
2023/01/17 08:37:38;;;;;;;0.10;0.10;;;2.70;99.90;12.80;163505.00;;;;4993319;28;20259;-72
2023/01/17 08:40:09;;;;;;;0.10;0.10;;;2.80;99.90;12.80;163505.00;;;;4985913;28;20707;-73
2023/01/17 08:42:39;;;;;;;0.10;0.10;;;2.80;99.90;12.80;163505.00;;;;4958009;28;20201;-73
2023/01/17 08:45:11;;;;;;;0.10;0.10;;;2.90;99.90;12.80;163505.00;;;;4975639;28;20276;-73
2023/01/17 08:47:39;;;;;;;0.10;0.10;;;3.00;99.90;12.80;163505.00;;;;4975193;28;20194;-73
2023/01/17 08:50:08;;;;;;;0.10;0.10;;;2.90;99.90;12.80;163505.00;;;;4977950;28;20205;-73
2023/01/17 08:52:37;;;;;;;0.10;0.10;;;2.90;99.90;12.80;163505.00;;;;4961730;28;20233;-72
2023/01/17 08:55:08;;;;;;;0.10;0.10;;;2.90;99.90;12.80;163505.00;;;;4976196;28;20236;-72
2023/01/17 08:57:36;;;;;;;0.10;0.10;;;2.80;99.90;12.80;163505.00;;;;4976574;28;20271;-73
2023/01/17 09:00:06;;;;;;;0.10;0.10;;;2.70;99.90;12.80;163505.00;;;;4976936;28;20252;-72
2023/01/17 09:02:35;;;;;;;0.10;0.10;;;2.80;99.90;12.80;163505.00;;;;4974510;28;20264;-72
2023/01/17 09:05:03;;;;;;;0.10;0.10;;;2.70;99.90;12.80;163505.00;;;;4974671;28;20204;-73
2023/01/17 09:07:31;;;;;;;0.10;0.10;;;2.60;99.90;12.80;163505.00;;;;4974265;28;20701;-72
2023/01/17 09:10:00;;;;;;;0.10;0.10;;;2.60;99.90;12.80;163505.00;;;;4974217;28;20205;-72
2023/01/17 09:12:33;;;;;;;0.10;0.10;;;2.70;99.90;12.80;163505.00;;;;4974301;28;20283;-72
2023/01/17 09:15:01;;;;;;;0.10;0.10;;;2.70;99.90;12.80;163505.00;;;;4973511;28;20189;-73
2023/01/17 09:17:29;;;;;;;0.10;0.10;;;2.80;99.90;12.80;163505.00;;;;4974058;28;20200;-73
2023/01/17 09:19:58;;;;;;;0.10;0.10;;;2.80;99.90;12.80;163505.00;;;;4974348;28;20224;-73
2023/01/17 09:22:26;;;;;;;0.10;0.10;;;2.80;99.90;12.80;163505.00;;;;4989092;28;20216;-73
2023/01/17 09:24:54;;;;;;;0.10;0.10;;;2.80;99.90;12.80;163505.00;;;;4974591;28;20653;-72
2023/01/17 09:27:23;;;;;;;0.10;0.10;;;2.90;99.90;12.80;163505.00;;;;4974159;28;20236;-72
2023/01/17 09:29:51;;;;;;;0.10;0.10;;;2.90;99.90;12.80;163505.00;;;;4975223;28;20193;-72
2023/01/17 09:32:19;;;;;;;0.10;0.10;;;2.90;99.90;12.80;163505.00;;;;4975660;28;20209;-72
2023/01/17 09:34:47;;;;;;;0.10;0.10;;;3.00;99.90;12.80;163505.00;;;;4974437;28;20220;-73
2023/01/17 09:37:15;;;;;;;0.10;0.10;;;3.00;99.90;12.80;163505.00;;;;4973568;28;20197;-72
2023/01/17 09:39:43;;;;;;;0.10;0.10;;;3.00;99.90;12.80;163505.00;;;;4974660;28;20201;-73
2023/01/17 09:42:21;;;;;;;0.10;0.10;;;3.00;99.90;12.80;163505.00;;;;4973700;28;20783;-73
2023/01/17 09:44:52;;;;;;;0.10;0.10;;;3.00;99.90;12.80;163505.00;;;;4974174;28;20494;-73
2023/01/17 09:47:33;;;;;;;0.10;0.10;;;3.00;99.90;12.80;163505.00;;;;4988990;28;20201;-73
2023/01/17 09:50:23;;;;;;;0.10;0.10;;;3.00;99.90;12.80;163505.00;;;;4974742;28;20252;-73
2023/01/17 09:53:00;;;;;;;0.10;0.10;;;3.00;99.90;12.80;163505.00;;;;4991224;28;20225;-73
2023/01/17 09:55:38;;;;;;;0.10;0.10;;;3.10;99.90;12.80;163505.00;;;;4978749;28;20197;-72
2023/01/17 09:58:12;;;;;;;0.10;0.10;;;3.20;99.90;12.80;163505.00;;;;4960620;28;20267;-73
2023/01/17 10:01:00;;;;;;;0.10;0.10;;;3.30;99.90;12.80;163505.00;;;;4975039;28;20670;-73
2023/01/17 10:03:42;;;;;;;0.10;0.10;;;3.40;99.90;12.80;163505.00;;;;4973603;28;20313;-74
2023/01/17 10:06:36;;;;;;;0.10;0.10;;;3.40;99.90;12.80;163505.00;;;;4973581;28;20225;-73
2023/01/17 10:09:37;;;;;;;0.10;0.10;;;3.40;99.90;12.80;163505.00;;;;4973188;28;21245;-73
2023/01/17 10:12:20;;;;;;;0.10;0.10;;;3.50;99.90;12.80;163505.00;;;;4973323;28;20248;-73
2023/01/17 10:15:28;;;;;;;0.10;0.10;;;3.40;99.90;12.80;163505.00;;;;4972917;28;20213;-72
2023/01/17 10:18:19;;;;;;;0.10;0.10;;;3.40;99.90;12.80;163505.00;;;;4973322;28;20314;-72
2023/01/17 10:21:07;;;;;;;0.10;0.10;;;3.30;99.90;12.80;163505.00;;;;4974088;28;20193;-72
2023/01/17 10:24:12;;;;;;;0.10;0.10;;;3.20;99.90;12.80;163505.00;;;;4972835;28;20220;-72
2023/01/17 10:26:40;;;;;;;0.10;0.10;;;3.10;99.90;12.80;163505.00;;;;4973358;28;20566;-72
2023/01/17 10:29:16;;;;;;;0.10;0.10;;;3.10;99.90;12.80;163505.00;;;;4972712;28;20201;-72
2023/01/17 10:31:55;;;;;;;0.10;0.10;;;3.20;99.90;12.80;163505.00;;;;4973095;28;20189;-72
2023/01/17 10:34:36;;;;;;;0.10;0.10;;;3.30;99.90;12.80;163505.00;;;;4972881;28;20232;-72
2023/01/17 10:37:16;;;;;;;0.10;0.10;;;3.30;99.90;12.80;163505.00;;;;4972879;28;20200;-73
2023/01/17 10:39:48;;;;;;;0.10;0.10;;;3.30;99.90;12.80;163505.00;;;;4988381;28;20209;-72
2023/01/17 10:42:22;;;;;;;0.10;0.10;;;3.40;99.90;12.80;163505.00;;;;4972871;28;20199;-72
2023/01/17 10:45:01;;;;;;;0.10;0.10;;;3.40;99.90;12.80;163505.00;;;;4972574;28;20209;-72
2023/01/17 10:47:36;;;;;;;0.10;0.10;;;3.40;99.90;12.80;163505.00;;;;4973489;28;20200;-71
2023/01/17 10:50:10;;;;;;;0.10;0.10;;;3.40;99.90;12.80;163505.00;;;;4973014;28;20199;-72
2023/01/17 10:52:51;;;;;;;0.10;0.10;;;3.40;99.90;12.80;163505.00;;;;4973287;28;20254;-72
2023/01/17 10:55:37;;;;;;;0.10;0.10;;;3.50;99.90;12.80;163505.00;;;;4996527;23;20780;-76
2023/01/17 10:58:11;;;;;;;0.10;0.10;;;3.50;99.90;12.80;163505.00;;;;4972577;28;20201;-76
2023/01/17 11:00:48;;;;;;;0.10;0.10;;;3.60;99.90;12.80;163505.00;;;;4971473;28;20201;-75
2023/01/17 11:03:19;;;;;;;0.10;0.10;;;3.40;99.90;12.80;163505.00;;;;4974049;28;20267;-75
2023/01/17 11:06:16;;;;;;;0.10;0.10;;;3.40;99.90;12.80;163505.00;;;;4991317;28;20192;-75
2023/01/17 11:08:54;;;;;;;0.10;0.10;;;3.40;99.90;12.80;163505.00;;;;5002036;28;20672;-76
2023/01/17 11:11:28;;;;;;;0.10;0.10;;;3.50;99.90;12.80;163505.00;;;;5011616;28;20478;-75
2023/01/17 11:14:00;;;;;;;0.10;0.10;;;3.50;99.90;12.80;163505.00;;;;4993775;28;20241;-75
2023/01/17 11:16:31;;;;;;;0.10;0.10;;;3.50;99.90;12.80;163505.00;;;;5011564;28;20192;-76
2023/01/17 11:19:15;;;;;;;0.10;0.10;;;3.50;99.90;12.80;163505.00;;;;5012263;28;20250;-76
2023/01/17 11:21:56;;;;;;;0.10;0.10;;;3.50;99.90;12.80;163505.00;;;;5011451;28;20199;-76
2023/01/17 11:24:33;;;;;;;0.10;0.10;;;3.50;99.90;12.80;163505.00;;;;5011721;28;20223;-75
2023/01/17 11:27:03;;;;;;;0.10;0.10;;;3.60;99.90;12.80;163505.00;;;;5011410;28;20199;-76
2023/01/17 11:29:38;;;;;;;0.10;0.10;;;3.60;99.90;12.80;163505.00;;;;5011622;28;20270;-75
2023/01/17 11:32:30;;;;;;;0.10;0.10;;;3.50;99.90;12.80;163505.00;;;;5011601;28;20462;-75
2023/01/17 11:35:19;;;;;;;0.10;0.10;;;3.60;99.90;12.80;163505.00;;;;5011143;28;20731;-75
2023/01/17 11:37:58;;;;;;;0.10;0.10;;;3.60;99.90;12.80;163505.00;;;;5010866;28;20192;-75
2023/01/17 11:40:29;;;;;;;0.10;0.10;;;3.80;99.90;12.80;163505.00;;;;5011316;28;20246;-75
2023/01/17 11:43:17;;;;;;;0.10;0.10;;;3.90;99.90;12.80;163505.00;;;;5011020;28;20188;-75
2023/01/17 11:45:47;;;;;;;0.10;0.10;;;4.00;99.90;12.80;163505.00;;;;5011275;28;20619;-76
2023/01/17 11:48:17;;;;;;;0.10;0.10;;;3.90;99.90;12.80;163505.00;;;;5011098;28;20204;-76
2023/01/17 11:50:56;;;;;;;0.10;0.10;;;3.80;99.90;12.80;163505.00;;;;5011288;28;20623;-76
2023/01/17 11:53:29;;;;;;;0.10;0.10;;;3.70;99.90;12.80;163505.00;;;;5011558;28;20206;-75
2023/01/17 11:56:05;;;;;;;0.00;0.00;;;3.60;99.90;12.80;163505.00;;;;5011755;28;20229;-75
2023/01/17 11:58:36;;;;;;;0.10;0.10;;;3.80;99.90;12.80;163505.00;;;;5011475;28;20605;-75
2023/01/17 12:01:32;;;;;;;0.10;0.10;;;3.90;99.90;12.80;163505.00;;;;5015209;28;20203;-75
2023/01/17 12:04:22;;;;;;;0.10;0.10;;;4.20;99.90;12.80;163505.00;;;;5014448;28;20886;-74
2023/01/17 12:07:07;;;;;;;0.10;0.10;;;5.00;99.90;12.80;163505.00;;;;5014704;28;20665;-74
2023/01/17 12:09:46;;;;;;;0.10;0.10;;;5.50;99.90;12.80;163505.00;;;;5014907;28;20191;-75
2023/01/17 12:15:33;;;;;;;0.10;0.10;;;6.20;99.90;12.80;163505.00;;;;5019249;28;20227;-77
2023/01/17 12:18:26;;;;;;;0.10;0.10;;;5.30;99.90;12.80;163505.00;;;;5032588;28;20196;-75
2023/01/17 12:21:11;;;;;;;0.10;0.10;;;4.80;99.90;12.80;163505.00;;;;5031746;28;20196;-74
2023/01/17 12:23:58;;;;;;;0.10;0.10;;;5.90;99.90;12.80;163505.00;;;;5030730;28;20235;-74
2023/01/17 12:26:37;;;;;;;0.10;0.10;;;7.20;99.90;12.80;163505.00;;;;5029339;28;20199;-74
2023/01/17 12:29:46;;;;;;;0.10;0.10;;;8.00;99.90;12.80;163505.00;;;;5027122;28;20187;-74
2023/01/17 12:32:55;;;;;;;0.10;0.10;;;9.10;99.90;12.80;163505.00;;;;5026912;28;20271;-74
2023/01/17 12:35:37;;;;;;;0.10;0.10;;;9.50;99.90;12.80;163505.00;;;;5027049;28;20227;-74
2023/01/17 12:38:10;;;;;;;0.10;0.10;;;9.70;99.90;12.80;163505.00;;;;5028182;28;20206;-75
2023/01/17 12:41:05;;;;;;;0.10;0.10;;;9.50;99.90;12.80;163505.00;;;;5019121;28;20190;-75
2023/01/17 12:43:39;;;;;;;0.10;0.10;;;9.30;99.90;12.80;163505.00;;;;5014634;28;20742;-75
2023/01/17 12:46:19;;;;;;;0.10;0.10;;;8.80;99.90;12.80;163505.00;;;;5014070;28;20199;-77
2023/01/17 12:48:55;;;;;;;0.10;0.10;;;8.60;99.90;12.80;163505.00;;;;5014659;28;20198;-75